createdAt,value
2022-08-09T00:00:23.966Z,101597.91
2022-08-09T00:02:53.101Z,101598.84
2022-08-09T00:06:18.146Z,101606.81
2022-08-09T00:08:31.411Z,101607.06
2022-08-09T00:11:05.755Z,101607.28
2022-08-09T00:13:50.482Z,101595.88
2022-08-09T00:16:26.522Z,101602.28
2022-08-09T00:19:10.182Z,101599.72
2022-08-09T00:21:55.495Z,101601.63
2022-08-09T00:24:27.415Z,101599.13
2022-08-09T00:26:59.854Z,101594.69
2022-08-09T00:29:39.904Z,101592.94
2022-08-09T00:32:35.786Z,101600.09
2022-08-09T00:35:05.466Z,101593.91
2022-08-09T00:37:34.152Z,101600.19
2022-08-09T00:40:13.433Z,101597.50
2022-08-09T00:44:11.190Z,101605.44
2022-08-09T00:45:35.345Z,101597.44
2022-08-09T00:48:06.674Z,101599.28
2022-08-09T00:50:37.832Z,101600.03
2022-08-09T00:53:10.601Z,101604.31
2022-08-09T00:56:05.405Z,101606.03
2022-08-09T00:58:31.850Z,101597.84
2022-08-09T01:01:01.541Z,101605.72
2022-08-09T01:03:45.664Z,101612.72
2022-08-09T01:06:22.515Z,101610.03
2022-08-09T01:09:06.191Z,101618.06
2022-08-09T01:11:55.437Z,101613.66
2022-08-09T01:14:30.520Z,101611.69
2022-08-09T01:17:10.998Z,101612.66
2022-08-09T01:20:01.691Z,101608.28
2022-08-09T01:23:00.697Z,101609.19
2022-08-09T01:25:49.011Z,101606.56
2022-08-09T01:28:23.561Z,101607.50
2022-08-09T01:30:59.892Z,101608.47
2022-08-09T01:33:36.273Z,101603.22
2022-08-09T01:36:08.357Z,101604.25
2022-08-09T01:38:40.815Z,101610.56
2022-08-09T01:41:17.187Z,101601.84
2022-08-09T01:43:52.420Z,101608.06
2022-08-09T01:46:25.203Z,101604.47
2022-08-09T01:49:10.411Z,101607.13
2022-08-09T01:51:44.561Z,101608.94
2022-08-09T01:54:27.041Z,101617.88
2022-08-09T01:57:04.187Z,101614.44
2022-08-09T01:59:51.031Z,101608.31
2022-08-09T02:02:31.871Z,101614.63
2022-08-09T02:05:15.807Z,101610.25
2022-08-09T02:08:40.229Z,101608.59
2022-08-09T02:10:51.317Z,101610.53
2022-08-09T02:14:02.180Z,101620.34
2022-08-09T02:17:14.551Z,101618.56
2022-08-09T02:19:48.190Z,101621.25
2022-08-09T02:22:38.491Z,101614.19
2022-08-09T02:25:19.013Z,101619.56
2022-08-09T02:28:00.503Z,101618.72
2022-08-09T02:30:46.988Z,101614.34
2022-08-09T02:33:22.988Z,101626.06
2022-08-09T02:36:03.223Z,101622.63
2022-08-09T02:38:40.356Z,101618.38
2022-08-09T02:41:24.825Z,101613.06
2022-08-09T02:43:56.854Z,101617.47
2022-08-09T02:46:30.253Z,101618.31
2022-08-09T02:49:11.104Z,101622.69
2022-08-09T02:51:43.694Z,101622.75
2022-08-09T02:54:17.554Z,101629.09
2022-08-09T02:56:51.674Z,101618.56
2022-08-09T02:59:36.589Z,101631.13
2022-08-09T03:02:12.378Z,101620.53
2022-08-09T03:04:52.432Z,101630.41
2022-08-09T03:07:24.531Z,101626.91
2022-08-09T03:10:05.220Z,101619.06
2022-08-09T03:12:38.500Z,101625.31
2022-08-09T03:15:16.765Z,101625.41
2022-08-09T03:17:46.045Z,101623.72
2022-08-09T03:20:24.922Z,101622.06
2022-08-09T03:23:14.918Z,101628.38
2022-08-09T03:26:03.240Z,101620.47
2022-08-09T03:28:34.775Z,101620.56
2022-08-09T03:31:10.512Z,101617.94
2022-08-09T03:33:54.095Z,101623.28
2022-08-09T03:36:28.189Z,101622.38
2022-08-09T03:39:00.155Z,101624.16
2022-08-09T03:41:30.018Z,101624.13
2022-08-09T03:44:15.527Z,101628.56
2022-08-09T03:46:46.389Z,101631.19
2022-08-09T03:49:19.139Z,101636.44
2022-08-09T03:52:03.661Z,101635.50
2022-08-09T03:54:40.355Z,101631.00
2022-08-09T03:57:18.614Z,101633.56
2022-08-09T04:00:00.524Z,101636.25
2022-08-09T04:02:52.634Z,101643.47
2022-08-09T04:05:27.474Z,101642.63
2022-08-09T04:07:58.242Z,101636.53
2022-08-09T04:10:29.117Z,101648.97
2022-08-09T04:13:04.096Z,101646.34
2022-08-09T04:16:17.124Z,101641.91
2022-08-09T04:18:25.045Z,101645.38
2022-08-09T04:20:54.176Z,101654.16
2022-08-09T04:23:27.349Z,101657.69
2022-08-09T04:25:56.700Z,101660.31
2022-08-09T04:28:34.217Z,101654.13
2022-08-09T04:31:10.312Z,101659.44
2022-08-09T04:33:53.113Z,101664.66
2022-08-09T04:36:32.342Z,101662.00
2022-08-09T04:39:04.733Z,101674.38
2022-08-09T04:41:43.717Z,101672.56
2022-08-09T04:44:18.202Z,101678.72
2022-08-09T04:46:58.561Z,101679.56
2022-08-09T04:49:52.906Z,101674.19
2022-08-09T04:52:26.465Z,101674.13
2022-08-09T04:55:05.083Z,101682.97
2022-08-09T04:57:58.314Z,101680.25
2022-08-09T05:00:34.515Z,101682.91
2022-08-09T05:03:30.530Z,101681.03
2022-08-09T05:06:04.539Z,101688.94
2022-08-09T05:08:35.800Z,101687.94
2022-08-09T05:11:09.330Z,101692.13
2022-08-09T05:13:40.618Z,101686.59
2022-08-09T05:16:10.349Z,101688.09
2022-08-09T05:18:58.256Z,101685.16
2022-08-09T05:21:57.057Z,101680.06
2022-08-09T05:24:31.144Z,101678.63
2022-08-09T05:27:11.640Z,101684.34
2022-08-09T05:29:45.836Z,101683.72
2022-08-09T05:32:15.761Z,101692.09
2022-08-09T05:34:45.863Z,101693.34
2022-08-09T05:37:21.710Z,101692.69
2022-08-09T05:39:59.561Z,101700.78
2022-08-09T05:42:31.089Z,101694.75
2022-08-09T05:45:00.391Z,101701.19
2022-08-09T05:47:33.799Z,101698.03
2022-08-09T05:50:30.682Z,101704.50
2022-08-09T05:52:57.951Z,101708.13
2022-08-09T05:55:32.460Z,101712.94
2022-08-09T05:58:07.230Z,101715.91
2022-08-09T06:00:44.236Z,101728.03
2022-08-09T06:03:19.932Z,101725.03
2022-08-09T06:05:57.189Z,101721.75
2022-08-09T06:08:36.597Z,101726.16
2022-08-09T06:11:16.414Z,101722.69
2022-08-09T06:14:04.935Z,101721.78
2022-08-09T06:16:33.698Z,101733.47
2022-08-09T06:19:07.749Z,101731.75
2022-08-09T06:21:39.745Z,101730.34
2022-08-09T06:24:23.341Z,101733.31
2022-08-09T06:27:00.451Z,101731.47
2022-08-09T06:29:30.694Z,101741.88
2022-08-09T06:32:08.715Z,101741.06
2022-08-09T06:34:53.037Z,101739.78
2022-08-09T06:37:50.705Z,101741.66
2022-08-09T06:40:33.690Z,101742.66
2022-08-09T06:43:03.147Z,101745.66
2022-08-09T06:46:06.398Z,101746.00
2022-08-09T06:48:45.846Z,101744.09
2022-08-09T06:51:17.924Z,101742.22
2022-08-09T06:53:46.575Z,101746.72
2022-08-09T06:56:18.845Z,101741.59
2022-08-09T07:00:54.310Z,101747.81
2022-08-09T07:01:54.610Z,101740.84
2022-08-09T07:04:27.251Z,101743.44
2022-08-09T07:07:00.160Z,101751.78
2022-08-09T07:09:55.865Z,101746.75
2022-08-09T07:12:18.815Z,101754.75
2022-08-09T07:14:51.060Z,101763.72
2022-08-09T07:17:24.270Z,101769.16
2022-08-09T07:19:55.627Z,101766.44
2022-08-09T07:22:34.707Z,101772.59
2022-08-09T07:25:09.688Z,101769.66
2022-08-09T07:27:53.652Z,101772.81
2022-08-09T07:30:32.418Z,101776.59
2022-08-09T07:33:12.290Z,101773.41
2022-08-09T07:35:54.395Z,101771.59
2022-08-09T07:38:23.919Z,101781.22
2022-08-09T07:41:11.653Z,101774.66
2022-08-09T07:43:50.087Z,101787.31
2022-08-09T07:46:30.106Z,101787.88
2022-08-09T07:49:08.272Z,101790.34
2022-08-09T07:52:05.098Z,101790.91
2022-08-09T07:54:58.216Z,101780.78
2022-08-09T07:57:33.878Z,101778.22
2022-08-09T08:00:20.686Z,101779.31
2022-08-09T08:03:09.776Z,101783.19
2022-08-09T08:05:58.014Z,101775.25
2022-08-09T08:08:59.970Z,101780.75
2022-08-09T08:12:09.953Z,101781.44
2022-08-09T08:14:45.016Z,101770.81
2022-08-09T08:17:52.509Z,101771.50
2022-08-09T08:20:29.272Z,101771.09
2022-08-09T08:23:18.528Z,101777.47
2022-08-09T08:26:08.254Z,101775.72
2022-08-09T08:28:42.018Z,101775.97
2022-08-09T08:31:24.587Z,101780.94
2022-08-09T08:34:10.497Z,101774.22
2022-08-09T08:36:44.852Z,101777.50
2022-08-09T08:39:15.090Z,101782.38
2022-08-09T08:41:51.879Z,101768.50
2022-08-09T08:44:29.302Z,101775.72
2022-08-09T08:47:02.440Z,101770.19
2022-08-09T08:49:46.348Z,101772.31
2022-08-09T08:52:53.091Z,101768.75
2022-08-09T08:55:23.197Z,101766.13
2022-08-09T08:57:57.073Z,101773.59
2022-08-09T09:00:34.210Z,101776.38
2022-08-09T09:03:11.234Z,101770.22
2022-08-09T09:06:00.438Z,101765.84
2022-08-09T09:08:42.141Z,101769.03
2022-08-09T09:11:17.586Z,101769.41
2022-08-09T09:13:57.037Z,101766.47
2022-08-09T09:16:33.578Z,101766.53
2022-08-09T09:22:11.402Z,101775.44
2022-08-09T09:24:45.112Z,101766.91
2022-08-09T09:28:03.018Z,101777.56
2022-08-09T09:33:13.962Z,101769.25
2022-08-09T09:36:00.673Z,101772.47
2022-08-09T09:38:46.402Z,101767.94
2022-08-09T09:41:33.065Z,101770.81
2022-08-09T09:44:12.443Z,101771.44
2022-08-09T09:46:45.893Z,101765.31
2022-08-09T09:49:56.018Z,101753.88
2022-08-09T09:52:36.224Z,101768.69
2022-08-09T09:55:23.858Z,101756.53
2022-08-09T09:58:15.930Z,101751.50
2022-08-09T10:00:58.764Z,101752.31
2022-08-09T10:03:40.548Z,101762.84
2022-08-09T10:06:13.023Z,101751.38
2022-08-09T10:08:55.170Z,101751.63
2022-08-09T10:11:56.990Z,101742.63
2022-08-09T10:14:33.664Z,101742.53
2022-08-09T10:17:24.004Z,101744.28
2022-08-09T10:20:14.980Z,101741.38
2022-08-09T10:22:47.945Z,101741.56
2022-08-09T10:25:24.376Z,101740.56
2022-08-09T10:28:04.454Z,101738.78
2022-08-09T10:32:20.933Z,101740.94
2022-08-09T10:34:04.230Z,101745.13
2022-08-09T10:36:15.318Z,101742.28
2022-08-09T10:38:56.403Z,101730.72
2022-08-09T10:41:28.498Z,101737.00
2022-08-09T10:43:59.822Z,101734.25
2022-08-09T10:48:13.482Z,101733.03
2022-08-09T10:50:15.046Z,101728.25
2022-08-09T10:53:05.247Z,101731.47
2022-08-09T10:55:57.838Z,101724.75
2022-08-09T10:58:34.747Z,101725.66
2022-08-09T11:03:02.889Z,101719.16
2022-08-09T11:04:30.408Z,101723.59
2022-08-09T11:07:58.492Z,101719.19
2022-08-09T11:10:56.580Z,101719.16
2022-08-09T11:13:50.943Z,101714.66
2022-08-09T11:16:41.067Z,101723.69
2022-08-09T11:19:11.503Z,101710.16
2022-08-09T11:22:24.354Z,101720.97
2022-08-09T11:25:10.381Z,101708.56
2022-08-09T11:28:03.692Z,101707.69
2022-08-09T11:30:37.672Z,101705.06
2022-08-09T11:33:13.033Z,101706.69
2022-08-09T11:35:54.809Z,101708.44
2022-08-09T11:38:32.166Z,101712.56
2022-08-09T11:41:38.350Z,101706.91
2022-08-09T11:44:09.474Z,101701.53
2022-08-09T11:46:58.137Z,101703.38
2022-08-09T11:50:56.848Z,101704.31
2022-08-09T11:53:59.407Z,101699.00
2022-08-09T11:56:34.440Z,101699.44
2022-08-09T11:59:14.239Z,101681.69
2022-08-09T12:02:16.290Z,101685.81
2022-08-09T12:04:38.072Z,101687.22
2022-08-09T12:07:08.404Z,101684.34
2022-08-09T12:09:37.824Z,101677.53
2022-08-09T12:12:12.963Z,101675.72
2022-08-09T12:15:07.205Z,101677.47
2022-08-09T12:17:43.336Z,101672.69
2022-08-09T12:20:16.542Z,101677.97
2022-08-09T12:22:55.708Z,101684.63
2022-08-09T12:25:36.553Z,101678.22
2022-08-09T12:29:00.061Z,101681.88
2022-08-09T12:31:02.910Z,101682.38
2022-08-09T12:33:59.238Z,101680.56
2022-08-09T12:36:32.238Z,101677.03
2022-08-09T12:39:04.237Z,101679.63
2022-08-09T12:41:39.644Z,101678.25
2022-08-09T12:44:13.042Z,101674.19
2022-08-09T12:46:49.254Z,101680.34
2022-08-09T12:49:21.432Z,101678.25
2022-08-09T12:52:01.422Z,101666.91
2022-08-09T12:54:46.531Z,101663.94
2022-08-09T12:57:42.122Z,101670.41
2022-08-09T13:00:25.232Z,101664.91
2022-08-09T13:02:58.570Z,101668.25
2022-08-09T13:05:50.677Z,101662.41
2022-08-09T13:08:40.374Z,101671.69
2022-08-09T13:11:23.185Z,101661.34
2022-08-09T13:14:42.804Z,101669.59
2022-08-09T13:16:53.066Z,101666.78
2022-08-09T13:20:10.184Z,101666.84
2022-08-09T13:22:37.624Z,101663.84
2022-08-09T13:25:13.739Z,101661.84
2022-08-09T13:27:55.271Z,101648.22
2022-08-09T13:30:50.841Z,101641.38
2022-08-09T13:33:52.779Z,101636.28
2022-08-09T13:36:41.467Z,101639.00
2022-08-09T13:41:17.595Z,101637.56
2022-08-09T13:42:00.806Z,101633.09
2022-08-09T13:44:30.480Z,101640.50
2022-08-09T13:47:29.131Z,101634.56
2022-08-09T13:49:57.403Z,101631.28
2022-08-09T13:52:29.998Z,101637.91
2022-08-09T13:55:02.189Z,101635.13
2022-08-09T13:57:39.934Z,101642.72
2022-08-09T14:00:15.497Z,101639.63
2022-08-09T14:03:03.306Z,101646.06
2022-08-09T14:05:59.260Z,101634.41
2022-08-09T14:08:38.749Z,101636.78
2022-08-09T14:11:16.246Z,101639.47
2022-08-09T14:14:22.539Z,101631.28
2022-08-09T14:16:43.577Z,101634.47
2022-08-09T14:19:13.526Z,101634.81
2022-08-09T14:21:46.120Z,101634.38
2022-08-09T14:24:18.596Z,101630.41
2022-08-09T14:26:51.938Z,101627.34
2022-08-09T14:30:18.729Z,101637.69
2022-08-09T14:32:30.974Z,101646.03
2022-08-09T14:35:10.075Z,101637.91
2022-08-09T14:38:02.850Z,101631.78
2022-08-09T14:41:00.709Z,101626.06
2022-08-09T14:43:20.459Z,101634.81
2022-08-09T14:46:54.858Z,101635.09
2022-08-09T14:48:38.459Z,101629.53
2022-08-09T14:51:10.785Z,101640.63
2022-08-09T14:53:46.863Z,101628.56
2022-08-09T14:56:18.006Z,101629.66
2022-08-09T14:58:50.476Z,101625.06
2022-08-09T15:01:25.355Z,101617.88
2022-08-09T15:03:54.777Z,101624.06
2022-08-09T15:06:25.401Z,101625.41
2022-08-09T15:08:56.642Z,101622.47
2022-08-09T15:11:28.077Z,101627.44
2022-08-09T15:14:04.748Z,101626.97
2022-08-09T15:16:43.038Z,101631.00
2022-08-09T15:19:16.118Z,101626.50
2022-08-09T15:21:55.138Z,101621.44
2022-08-09T15:24:30.272Z,101627.38
2022-08-09T15:26:59.513Z,101621.25
2022-08-09T15:30:56.559Z,101616.69
2022-08-09T15:32:39.252Z,101616.56
2022-08-09T15:35:40.457Z,101608.28
2022-08-09T15:38:11.201Z,101609.66
2022-08-09T15:40:44.200Z,101608.91
2022-08-09T15:43:14.007Z,101608.97
2022-08-09T15:46:07.383Z,101609.44
2022-08-09T15:48:32.914Z,101615.59
2022-08-09T15:51:02.718Z,101603.72
2022-08-09T15:54:07.097Z,101603.78
2022-08-09T15:56:41.701Z,101608.16
2022-08-09T15:59:13.301Z,101602.25
2022-08-09T16:01:42.083Z,101607.91
2022-08-09T16:04:12.001Z,101602.00
2022-08-09T16:06:44.577Z,101613.75
2022-08-09T16:09:13.548Z,101605.38
2022-08-09T16:11:50.383Z,101603.53
2022-08-09T16:14:31.743Z,101605.06
2022-08-09T16:20:14.183Z,101599.53
2022-08-09T16:22:48.763Z,101594.19
2022-08-09T16:25:18.251Z,101594.03
2022-08-09T16:28:12.116Z,101588.03
2022-08-09T16:30:44.803Z,101588.91
2022-08-09T16:33:23.328Z,101600.72
2022-08-09T16:35:57.556Z,101588.69
2022-08-09T16:38:27.435Z,101590.63
2022-08-09T16:40:56.266Z,101598.00
2022-08-09T16:43:26.818Z,101595.50
2022-08-09T16:45:56.781Z,101589.44
2022-08-09T16:48:40.194Z,101589.50
2022-08-09T16:51:14.848Z,101596.75
2022-08-09T16:54:09.066Z,101595.94
2022-08-09T16:56:33.266Z,101595.94
2022-08-09T16:59:06.660Z,101593.66
2022-08-09T17:01:43.799Z,101596.88
2022-08-09T17:04:25.640Z,101595.03
2022-08-09T17:08:43.945Z,101598.63
2022-08-09T17:09:47.863Z,101601.59
2022-08-09T17:12:17.581Z,101602.84
2022-08-09T17:14:50.607Z,101603.63
2022-08-09T17:17:27.808Z,101604.72
2022-08-09T17:20:33.280Z,101600.34
2022-08-09T17:22:51.737Z,101605.06
2022-08-09T17:25:23.650Z,101600.22
2022-08-09T17:27:55.101Z,101612.75
2022-08-09T17:30:28.185Z,101598.97
2022-08-09T17:33:01.449Z,101590.09
2022-08-09T17:35:41.352Z,101601.28
2022-08-09T17:38:34.090Z,101599.88
2022-08-09T17:41:02.175Z,101598.47
2022-08-09T17:43:36.899Z,101599.97
2022-08-09T17:46:10.505Z,101598.78
2022-08-09T17:48:52.169Z,101432.16
2022-08-09T17:51:22.397Z,101606.16
2022-08-09T17:53:55.233Z,101601.84
2022-08-09T17:56:27.268Z,101605.53
2022-08-09T17:59:03.153Z,101603.09
2022-08-09T18:02:03.344Z,101608.53
2022-08-09T18:08:27.265Z,101611.22
2022-08-09T18:11:02.250Z,101616.50
2022-08-09T18:13:40.798Z,101617.34
2022-08-09T18:16:30.201Z,101612.09
2022-08-09T18:19:04.062Z,101612.31
2022-08-09T18:21:50.672Z,101617.81
2022-08-09T18:24:21.567Z,101619.72
2022-08-09T18:26:56.318Z,101615.34
2022-08-09T18:30:40.265Z,101624.25
2022-08-09T18:32:18.989Z,101626.75
2022-08-09T18:34:49.357Z,101628.47
2022-08-09T18:37:47.752Z,101629.53
2022-08-09T18:40:08.221Z,101631.47
2022-08-09T18:42:38.325Z,101633.09
2022-08-09T18:45:21.625Z,101632.03
2022-08-09T18:48:11.430Z,101631.78
2022-08-09T18:50:48.026Z,101640.56
2022-08-09T18:53:55.938Z,101638.97
2022-08-09T18:56:27.995Z,101640.13
2022-08-09T18:59:01.032Z,101648.72
2022-08-09T19:01:43.233Z,101652.91
2022-08-09T19:04:17.445Z,101652.88
2022-08-09T19:07:05.521Z,101662.25
2022-08-09T19:10:15.721Z,101657.63
2022-08-09T19:12:25.791Z,101663.88
2022-08-09T19:14:55.138Z,101663.53
2022-08-09T19:17:31.311Z,101668.44
2022-08-09T19:20:16.577Z,101671.72
2022-08-09T19:22:50.336Z,101675.97
2022-08-09T19:25:41.396Z,101673.28
2022-08-09T19:28:15.210Z,101669.56
2022-08-09T19:30:44.930Z,101676.63
2022-08-09T19:33:20.356Z,101674.63
2022-08-09T19:35:57.226Z,101674.78
2022-08-09T19:38:29.480Z,101670.78
2022-08-09T19:41:01.820Z,101671.97
2022-08-09T19:44:01.593Z,101681.94
2022-08-09T19:46:33.930Z,101678.81
2022-08-09T19:50:08.234Z,101685.66
2022-08-09T19:51:55.730Z,101682.16
2022-08-09T19:54:33.773Z,101686.75
2022-08-09T19:57:02.647Z,101690.22
2022-08-09T19:59:57.486Z,101686.59
2022-08-09T20:04:09.549Z,101700.06
2022-08-09T20:05:17.995Z,101693.16
2022-08-09T20:07:59.001Z,101697.81
2022-08-09T20:10:37.103Z,101704.88
2022-08-09T20:13:08.200Z,101702.75
2022-08-09T20:16:33.950Z,101692.22
2022-08-09T20:18:28.133Z,101696.91
2022-08-09T20:20:57.984Z,101705.22
2022-08-09T20:23:38.481Z,101704.41
2022-08-09T20:26:13.185Z,101707.31
2022-08-09T20:28:48.715Z,101702.34
2022-08-09T20:31:19.071Z,101703.75
2022-08-09T20:33:52.388Z,101702.75
2022-08-09T20:36:28.247Z,101707.28
2022-08-09T20:39:28.189Z,101708.09
2022-08-09T20:41:49.133Z,101715.88
2022-08-09T20:44:26.502Z,101707.75
2022-08-09T20:46:55.983Z,101712.19
2022-08-09T20:49:28.768Z,101717.97
2022-08-09T20:51:57.729Z,101708.38
2022-08-09T20:54:29.397Z,101706.03
2022-08-09T20:57:00.153Z,101708.84
2022-08-09T21:00:20.165Z,101720.94
2022-08-09T21:02:26.853Z,101719.72
2022-08-09T21:05:53.709Z,101718.31
2022-08-09T21:07:45.360Z,101712.59
2022-08-09T21:10:14.040Z,101717.97
2022-08-09T21:15:34.546Z,101714.78
2022-08-09T21:18:11.431Z,101719.91
2022-08-09T21:20:56.303Z,101724.44
2022-08-09T21:23:26.512Z,101725.47
2022-08-09T21:26:15.523Z,101727.59
2022-08-09T21:28:55.869Z,101723.22
2022-08-09T21:31:49.102Z,101738.09
2022-08-09T21:34:29.527Z,101730.41
2022-08-09T21:37:03.125Z,101732.44
2022-08-09T21:39:42.174Z,101731.78
2022-08-09T21:42:28.494Z,101737.25
2022-08-09T21:44:59.193Z,101736.38
2022-08-09T21:47:50.996Z,101741.97
2022-08-09T21:50:51.727Z,101733.19
2022-08-09T21:53:40.090Z,101741.34
2022-08-09T21:56:28.338Z,101742.66
2022-08-09T21:59:01.843Z,101738.78
2022-08-09T22:01:58.893Z,101738.78
2022-08-09T22:04:55.783Z,101735.47
2022-08-09T22:07:41.379Z,101736.59
2022-08-09T22:10:26.977Z,101742.09
2022-08-09T22:12:57.325Z,101746.63
2022-08-09T22:15:33.429Z,101747.59
2022-08-09T22:18:14.032Z,101750.56
2022-08-09T22:20:45.694Z,101749.00
2022-08-09T22:23:14.986Z,101749.06
2022-08-09T22:26:06.262Z,101747.72
2022-08-09T22:28:33.295Z,101753.28
2022-08-09T22:31:02.305Z,101746.47
2022-08-09T22:33:48.609Z,101749.34
2022-08-09T22:36:24.803Z,101750.41
2022-08-09T22:38:53.497Z,101751.63
2022-08-09T22:41:22.115Z,101750.25
2022-08-09T22:43:50.809Z,101748.69
2022-08-09T22:48:18.481Z,101751.38
2022-08-09T22:49:22.706Z,101751.94
2022-08-09T22:51:56.872Z,101748.97
2022-08-09T22:54:27.346Z,101751.78
2022-08-09T22:56:58.546Z,101751.84
2022-08-09T22:59:56.329Z,101757.13
2022-08-09T23:02:20.326Z,101759.75
2022-08-09T23:04:54.101Z,101760.97
2022-08-09T23:08:27.748Z,101758.59
2022-08-09T23:10:30.997Z,101752.56
2022-08-09T23:13:00.185Z,101745.66
2022-08-09T23:15:29.501Z,101752.97
2022-08-09T23:17:58.481Z,101748.69
2022-08-09T23:20:28.860Z,101748.69
2022-08-09T23:22:57.689Z,101754.16
2022-08-09T23:25:26.351Z,101751.63
2022-08-09T23:28:14.972Z,101740.81
2022-08-09T23:30:51.641Z,101739.94
2022-08-09T23:33:21.229Z,101743.53
2022-08-09T23:36:04.440Z,101739.84
2022-08-09T23:38:35.896Z,101738.38
2022-08-09T23:41:28.367Z,101733.78
2022-08-09T23:43:59.728Z,101731.28
2022-08-09T23:46:29.231Z,101737.66
2022-08-09T23:48:58.013Z,101733.16
2022-08-09T23:51:28.621Z,101736.88
2022-08-09T23:54:02.126Z,101723.66
2022-08-09T23:56:52.143Z,101731.16
2022-08-09T23:59:21.490Z,101735.78
